createdAt,value
2022-08-17T00:05:40.224Z,16.50
2022-08-17T00:15:38.900Z,16.40
2022-08-17T00:20:56.302Z,16.30
2022-08-17T00:30:53.181Z,16.30
2022-08-17T00:35:52.211Z,16.10
2022-08-17T00:51:33.795Z,16.00
2022-08-17T00:54:14.684Z,16.10
2022-08-17T00:56:55.769Z,16.10
2022-08-17T00:59:28.961Z,16.10
2022-08-17T01:04:34.578Z,15.20
2022-08-17T01:07:24.117Z,16.10
2022-08-17T01:09:53.846Z,16.10
2022-08-17T01:19:48.796Z,16.00
2022-08-17T01:22:17.965Z,16.00
2022-08-17T01:42:36.848Z,15.90
2022-08-17T01:45:17.396Z,15.90
2022-08-17T01:47:46.170Z,15.80
2022-08-17T01:50:18.978Z,15.80
2022-08-17T01:52:49.814Z,15.80
2022-08-17T02:28:08.724Z,15.50
2022-08-17T02:51:01.609Z,15.20
2022-08-17T03:01:06.673Z,15.20
2022-08-17T03:28:22.363Z,15.00
2022-08-17T03:35:47.138Z,15.00
2022-08-17T03:54:50.826Z,14.90
2022-08-17T04:25:06.270Z,15.00
2022-08-17T04:35:20.929Z,15.00
2022-08-17T05:05:26.276Z,15.60
2022-08-17T05:10:23.547Z,15.70
2022-08-17T05:25:25.879Z,16.10
2022-08-17T05:27:54.524Z,16.20
2022-08-17T05:51:36.606Z,17.20
2022-08-17T06:01:49.635Z,17.60
2022-08-17T06:12:21.669Z,18.10
2022-08-17T06:22:33.151Z,18.80
2022-08-17T06:25:10.437Z,19.00
2022-08-17T06:27:58.470Z,19.20
2022-08-17T06:30:28.469Z,19.40
2022-08-17T06:33:25.980Z,19.60
2022-08-17T06:38:44.425Z,20.00
2022-08-17T06:41:38.138Z,20.20
2022-08-17T06:44:50.817Z,20.40
2022-08-17T06:47:30.097Z,20.50
2022-08-17T06:50:21.466Z,20.70
2022-08-17T06:53:06.225Z,20.90
2022-08-17T06:56:00.509Z,21.10
2022-08-17T06:58:31.495Z,21.30
2022-08-17T07:01:03.908Z,21.60
2022-08-17T07:03:42.268Z,21.80
2022-08-17T07:06:15.880Z,22.00
2022-08-17T07:09:07.533Z,22.20
2022-08-17T07:11:40.443Z,22.30
2022-08-17T07:14:18.959Z,22.50
2022-08-17T07:16:48.256Z,22.60
2022-08-17T07:19:17.594Z,22.90
2022-08-17T07:22:04.814Z,23.00
2022-08-17T07:25:03.037Z,23.20
2022-08-17T07:27:35.876Z,23.30
2022-08-17T07:30:19.445Z,23.60
2022-08-17T07:32:57.465Z,23.70
2022-08-17T07:35:37.949Z,23.90
2022-08-17T07:38:25.682Z,24.00
2022-08-17T07:41:03.104Z,24.20
2022-08-17T07:43:42.316Z,24.40
2022-08-17T07:46:43.648Z,24.60
2022-08-17T07:49:10.484Z,24.70
2022-08-17T07:54:23.711Z,25.00
2022-08-17T07:59:34.383Z,25.20
2022-08-17T08:02:08.151Z,25.20
2022-08-17T08:05:01.897Z,25.40
2022-08-17T08:07:50.535Z,25.40
2022-08-17T08:10:36.368Z,25.70
2022-08-17T08:13:15.635Z,25.70
2022-08-17T08:15:54.186Z,25.90
2022-08-17T08:18:38.595Z,25.90
2022-08-17T08:21:39.660Z,26.20
2022-08-17T08:24:23.090Z,26.20
2022-08-17T08:27:14.078Z,26.40
2022-08-17T08:29:53.081Z,26.80
2022-08-17T08:33:14.772Z,26.80
2022-08-17T08:35:55.474Z,26.80
2022-08-17T08:38:29.345Z,26.80
2022-08-17T08:41:16.983Z,26.70
2022-08-17T08:44:19.075Z,26.70
2022-08-17T08:47:25.279Z,26.70
2022-08-17T08:50:30.116Z,26.90
2022-08-17T08:53:19.127Z,26.80
2022-08-17T08:55:52.234Z,26.90
2022-08-17T09:01:58.207Z,27.10
2022-08-17T09:04:55.906Z,27.20
2022-08-17T09:07:40.345Z,27.30
2022-08-17T09:10:13.990Z,27.30
2022-08-17T09:13:18.472Z,27.60
2022-08-17T09:16:17.356Z,27.50
2022-08-17T09:19:03.583Z,27.70
2022-08-17T09:24:26.696Z,27.70
2022-08-17T09:27:03.823Z,27.70
2022-08-17T09:29:35.366Z,27.70
2022-08-17T09:32:12.223Z,27.90
2022-08-17T09:34:48.535Z,28.20
2022-08-17T09:37:34.192Z,28.10
2022-08-17T09:40:11.848Z,28.00
2022-08-17T09:43:00.119Z,28.10
2022-08-17T09:45:49.569Z,28.10
2022-08-17T09:48:19.322Z,28.50
2022-08-17T09:51:07.038Z,28.60
2022-08-17T09:53:37.337Z,28.70
2022-08-17T09:56:17.778Z,28.50
2022-08-17T09:59:00.559Z,28.50
2022-08-17T10:01:38.419Z,28.30
2022-08-17T10:04:29.299Z,28.50
2022-08-17T10:07:28.505Z,28.70
2022-08-17T10:09:58.562Z,28.80
2022-08-17T10:12:29.807Z,29.00
2022-08-17T10:15:23.298Z,29.00
2022-08-17T10:18:16.982Z,28.90
2022-08-17T10:21:15.608Z,29.00
2022-08-17T10:24:03.708Z,29.00
2022-08-17T10:26:46.232Z,29.00
2022-08-17T10:29:46.179Z,29.10
2022-08-17T10:32:24.819Z,29.30
2022-08-17T10:35:10.608Z,29.40
2022-08-17T10:37:37.466Z,29.40
2022-08-17T10:40:14.959Z,29.40
2022-08-17T10:43:03.422Z,29.40
2022-08-17T10:46:31.352Z,29.50
2022-08-17T10:49:21.210Z,29.60
2022-08-17T10:51:56.806Z,29.70
2022-08-17T10:54:45.723Z,29.80
2022-08-17T10:57:33.929Z,29.80
2022-08-17T11:00:24.290Z,29.90
2022-08-17T11:02:56.326Z,30.10
2022-08-17T11:05:33.153Z,30.10
2022-08-17T11:08:21.657Z,30.40
2022-08-17T11:10:52.520Z,30.20
2022-08-17T11:13:43.244Z,30.20
2022-08-17T11:16:30.195Z,30.20
2022-08-17T11:19:18.108Z,30.30
2022-08-17T11:21:52.040Z,30.40
2022-08-17T11:24:39.961Z,30.50
2022-08-17T11:27:31.689Z,30.40
2022-08-17T11:30:36.080Z,30.30
2022-08-17T11:33:28.691Z,30.40
2022-08-17T11:38:37.329Z,30.50
2022-08-17T11:41:42.238Z,30.40
2022-08-17T11:44:17.794Z,30.40
2022-08-17T11:47:30.454Z,30.70
2022-08-17T11:50:39.289Z,30.90
2022-08-17T11:53:07.041Z,30.70
2022-08-17T11:55:40.690Z,31.00
2022-08-17T11:58:29.542Z,31.10
2022-08-17T12:01:02.976Z,31.00
2022-08-17T12:03:36.954Z,31.10
2022-08-17T12:06:30.734Z,31.00
2022-08-17T12:09:14.934Z,30.90
2022-08-17T12:11:55.687Z,30.90
2022-08-17T12:15:08.084Z,30.90
2022-08-17T12:17:40.691Z,30.80
2022-08-17T12:20:28.824Z,30.70
2022-08-17T12:23:16.605Z,30.70
2022-08-17T12:26:16.897Z,30.90
2022-08-17T12:28:57.396Z,30.80
2022-08-17T12:31:47.708Z,30.90
2022-08-17T12:34:29.433Z,30.80
2022-08-17T12:39:29.134Z,30.90
2022-08-17T12:42:02.829Z,30.80
2022-08-17T12:44:35.912Z,30.80
2022-08-17T12:47:22.223Z,31.10
2022-08-17T12:49:51.796Z,31.00
2022-08-17T12:52:33.001Z,31.20
2022-08-17T12:55:05.346Z,31.00
2022-08-17T12:57:54.256Z,31.00
2022-08-17T13:00:41.307Z,31.50
2022-08-17T13:03:21.756Z,31.40
2022-08-17T13:06:12.194Z,31.20
2022-08-17T13:08:45.884Z,31.10
2022-08-17T13:13:50.883Z,30.60
2022-08-17T13:16:27.170Z,30.60
2022-08-17T13:19:07.280Z,30.60
2022-08-17T13:21:37.742Z,30.80
2022-08-17T13:24:04.854Z,30.80
2022-08-17T13:26:48.373Z,31.10
2022-08-17T13:29:39.354Z,31.10
2022-08-17T13:34:49.594Z,31.00
2022-08-17T13:37:36.084Z,31.00
2022-08-17T13:40:09.249Z,30.90
2022-08-17T13:42:51.594Z,30.80
2022-08-17T13:45:35.368Z,30.90
2022-08-17T13:48:13.542Z,31.00
2022-08-17T13:50:55.424Z,31.10
2022-08-17T13:53:34.092Z,31.20
2022-08-17T13:56:36.960Z,31.10
2022-08-17T13:59:11.290Z,31.20
2022-08-17T14:01:53.865Z,31.00
2022-08-17T14:04:35.188Z,31.10
2022-08-17T14:07:25.452Z,31.00
2022-08-17T14:09:55.516Z,31.00
2022-08-17T14:12:25.324Z,30.90
2022-08-17T14:14:55.083Z,31.00
2022-08-17T14:17:23.304Z,30.90
2022-08-17T14:19:50.981Z,30.80
2022-08-17T14:22:28.935Z,30.50
2022-08-17T14:24:58.407Z,30.40
2022-08-17T14:29:56.476Z,30.50
2022-08-17T14:32:27.099Z,30.40
2022-08-17T14:34:56.779Z,30.40
2022-08-17T14:37:27.994Z,30.60
2022-08-17T14:39:57.039Z,30.50
2022-08-17T14:44:55.637Z,30.70
2022-08-17T14:47:22.808Z,30.50
2022-08-17T14:49:49.719Z,30.40
2022-08-17T14:52:21.630Z,30.50
2022-08-17T14:54:51.443Z,30.70
2022-08-17T14:57:34.142Z,30.50
2022-08-17T15:00:02.017Z,30.40
2022-08-17T15:02:31.091Z,30.30
2022-08-17T15:05:04.334Z,30.40
2022-08-17T15:07:31.722Z,30.20
2022-08-17T15:10:01.603Z,30.10
2022-08-17T15:12:32.688Z,30.10
2022-08-17T15:15:01.564Z,30.00
2022-08-17T15:17:44.906Z,29.90
2022-08-17T15:20:27.715Z,29.80
2022-08-17T15:22:55.791Z,29.80
2022-08-17T15:25:24.441Z,29.80
2022-08-17T15:27:51.873Z,29.70
2022-08-17T15:30:19.587Z,29.70
2022-08-17T15:35:27.965Z,29.60
2022-08-17T15:37:58.057Z,29.50
2022-08-17T15:40:25.258Z,29.50
2022-08-17T15:42:52.458Z,29.40
2022-08-17T15:45:24.657Z,29.50
2022-08-17T15:47:52.716Z,29.30
2022-08-17T15:50:19.801Z,29.30
2022-08-17T15:52:47.592Z,29.30
2022-08-17T15:55:15.661Z,29.40
2022-08-17T15:57:42.776Z,29.40
2022-08-17T16:00:10.472Z,29.30
2022-08-17T16:03:32.004Z,29.10
2022-08-17T16:05:28.634Z,30.30
2022-08-17T16:08:00.749Z,29.20
2022-08-17T16:10:35.033Z,29.20
2022-08-17T16:13:04.206Z,29.10
2022-08-17T16:15:31.901Z,29.10
2022-08-17T16:17:59.575Z,29.00
2022-08-17T16:20:26.980Z,28.90
2022-08-17T16:22:55.153Z,28.90
2022-08-17T16:25:52.000Z,28.70
2022-08-17T16:28:16.740Z,28.60
2022-08-17T16:30:44.483Z,28.60
2022-08-17T16:33:11.781Z,28.50
2022-08-17T16:35:39.254Z,28.30
2022-08-17T16:38:07.360Z,28.30
2022-08-17T16:40:36.341Z,28.20
2022-08-17T16:43:07.108Z,28.10
2022-08-17T16:45:36.882Z,28.00
2022-08-17T16:48:04.742Z,27.90
2022-08-17T16:50:32.660Z,28.20
2022-08-17T16:53:11.766Z,27.70
2022-08-17T16:55:38.964Z,27.60
2022-08-17T16:58:06.867Z,27.40
2022-08-17T17:00:34.488Z,27.30
2022-08-17T17:03:19.444Z,27.10
2022-08-17T17:05:59.404Z,26.90
2022-08-17T17:08:31.452Z,26.70
2022-08-17T17:11:03.891Z,26.50
2022-08-17T17:13:51.406Z,26.50
2022-08-17T17:16:40.772Z,26.40
2022-08-17T17:19:35.749Z,26.20
2022-08-17T17:22:21.734Z,26.00
2022-08-17T17:25:06.781Z,25.80
2022-08-17T17:27:36.868Z,25.70
2022-08-17T17:30:15.723Z,25.50
2022-08-17T17:32:56.495Z,25.40
2022-08-17T17:35:43.832Z,25.30
2022-08-17T17:38:20.034Z,25.20
2022-08-17T17:40:51.134Z,24.90
2022-08-17T17:43:38.329Z,24.80
2022-08-17T17:51:54.710Z,24.20
2022-08-17T17:55:07.568Z,24.00
2022-08-17T17:57:57.809Z,23.80
2022-08-17T18:00:37.093Z,23.60
2022-08-17T18:03:25.938Z,23.50
2022-08-17T18:05:53.239Z,23.40
2022-08-17T18:08:42.829Z,23.30
2022-08-17T18:11:41.405Z,23.30
2022-08-17T18:19:14.055Z,22.90
2022-08-17T18:21:48.478Z,22.80
2022-08-17T18:24:15.404Z,22.70
2022-08-17T18:29:36.803Z,22.40
2022-08-17T18:37:43.343Z,22.10
2022-08-17T18:45:51.282Z,21.80
2022-08-17T18:50:59.300Z,21.60
2022-08-17T18:53:40.840Z,21.50
2022-08-17T18:56:31.246Z,21.40
2022-08-17T19:07:07.101Z,21.20
2022-08-17T19:17:10.780Z,20.90
2022-08-17T19:30:25.079Z,20.70
2022-08-17T19:35:24.245Z,20.60
2022-08-17T19:38:26.467Z,20.50
2022-08-17T19:41:02.221Z,20.30
2022-08-17T19:57:24.212Z,20.10
2022-08-17T20:24:02.534Z,19.40
2022-08-17T20:27:00.413Z,19.40
2022-08-17T20:29:37.542Z,19.40
2022-08-17T20:32:23.272Z,19.40
2022-08-17T20:35:07.790Z,19.30
2022-08-17T20:37:36.373Z,19.20
2022-08-17T20:50:51.634Z,19.00
2022-08-17T20:53:47.396Z,18.90
2022-08-17T20:56:46.683Z,18.90
2022-08-17T21:25:49.040Z,18.70
2022-08-17T21:28:34.609Z,18.70
2022-08-17T21:33:38.706Z,18.70
2022-08-17T21:48:42.207Z,18.80
2022-08-17T21:58:45.417Z,18.80
2022-08-17T22:04:04.135Z,18.80
2022-08-17T22:17:19.974Z,18.70
2022-08-17T22:32:58.686Z,18.60
2022-08-17T22:38:18.820Z,18.60
2022-08-17T22:40:49.913Z,18.60
2022-08-17T23:27:19.971Z,18.20
2022-08-17T23:32:17.359Z,18.20
